Time,TemperatureF,DewpointF,PressureIn,WindDirection,WindDirectionDegrees,WindSpeedMPH,WindSpeedGustMPH,Humidity,HourlyPrecipIn,Conditions,Clouds,dailyrainin,SoftwareType,DateUTC
2013-10-04 01:31:00,46.0,44.0,29.91,SW,216,0.0,0.0,94,0.00,,,0.00,,2013-10-04 05:31:00,
2013-10-04 01:56:00,45.0,44.0,29.91,SW,216,0.0,0.0,95,0.00,,,0.00,,2013-10-04 05:56:00,
2013-10-04 02:18:00,45.0,44.0,29.91,SW,216,0.0,0.0,95,0.00,,,0.00,,2013-10-04 06:18:00,
2013-10-04 02:26:00,45.0,44.0,29.91,SW,216,0.0,0.0,95,0.00,,,0.00,,2013-10-04 06:26:00,
2013-10-04 02:36:00,45.0,44.0,29.91,SW,216,0.0,0.0,95,0.00,,,0.00,,2013-10-04 06:36:00,
2013-10-04 02:59:00,44.0,43.0,29.91,SW,216,0.0,0.0,95,0.00,,,0.00,,2013-10-04 06:59:00,
2013-10-04 03:26:00,43.0,42.0,29.90,SW,216,0.0,0.0,95,0.00,,,0.00,,2013-10-04 07:26:00,
2013-10-04 03:37:00,43.0,42.0,29.90,SW,216,0.0,0.0,95,0.00,,,0.00,,2013-10-04 07:37:00,
2013-10-04 03:58:00,43.0,42.0,29.90,SW,216,0.0,0.0,95,0.00,,,0.00,,2013-10-04 07:58:00,
2013-10-04 04:28:00,43.0,42.0,29.90,SW,219,0.0,0.0,95,0.00,,,0.00,,2013-10-04 08:28:00,
2013-10-04 04:55:00,42.0,41.0,29.91,SW,219,0.0,0.0,95,0.00,,,0.00,,2013-10-04 08:55:00,
2013-10-04 05:26:00,42.0,41.0,29.91,SW,219,0.0,0.0,95,0.00,,,0.00,,2013-10-04 09:26:00,
2013-10-04 05:38:00,42.0,41.0,29.91,SW,219,0.0,0.0,95,0.00,,,0.00,,2013-10-04 09:38:00,
2013-10-04 06:00:00,42.0,41.0,29.93,SW,219,0.0,0.0,96,0.00,,,0.00,,2013-10-04 10:00:00,
2013-10-04 06:03:00,42.0,41.0,29.93,SW,219,0.0,0.0,96,0.00,,,0.00,,2013-10-04 10:03:00,
2013-10-04 06:29:00,42.0,41.0,29.93,SW,219,0.0,0.0,96,0.00,,,0.00,,2013-10-04 10:29:00,
2013-10-04 06:38:00,42.0,41.0,29.93,SW,219,0.0,0.0,96,0.00,,,0.00,,2013-10-04 10:38:00,
2013-10-04 07:00:00,42.0,41.0,29.93,SW,219,0.0,0.0,96,0.00,,,0.00,,2013-10-04 11:00:00,
2013-10-04 11:50:00,68.0,51.0,29.93,SE,144,0.0,0.0,55,0.00,,,0.00,,2013-10-04 15:50:00,
2013-10-04 12:31:00,68.0,51.0,29.93,SE,144,0.0,0.0,55,0.00,,,0.00,,2013-10-04 16:31:00,
2013-10-04 12:40:00,68.0,51.0,29.93,SE,144,0.0,0.0,55,0.00,,,0.00,,2013-10-04 16:40:00,
2013-10-04 14:25:00,68.0,51.0,29.91,WSW,241,0.0,2.0,55,0.00,,,0.00,,2013-10-04 18:25:00,
2013-10-04 14:33:00,68.0,51.0,29.91,WSW,241,0.0,2.0,55,0.00,,,0.00,,2013-10-04 18:33:00,
2013-10-04 14:41:00,68.0,51.0,29.91,WSW,241,0.0,2.0,55,0.00,,,0.00,,2013-10-04 18:41:00,
2013-10-04 16:53:00,68.0,51.0,29.89,WSW,250,0.0,0.0,54,0.00,,,0.00,,2013-10-04 20:53:00,
2013-10-04 17:01:00,68.0,51.0,29.89,WSW,250,0.0,0.0,54,0.00,,,0.00,,2013-10-04 21:01:00,
2013-10-04 17:12:00,68.0,51.0,29.89,WSW,250,0.0,0.0,54,0.00,,,0.00,,2013-10-04 21:12:00,
2013-10-04 17:22:00,68.0,51.0,29.89,WSW,250,0.0,0.0,54,0.00,,,0.00,,2013-10-04 21:22:00,
2013-10-04 18:53:00,63.0,56.0,29.90,SW,217,0.0,0.0,78,0.00,,,0.00,,2013-10-04 22:53:00,
2013-10-04 19:03:00,63.0,56.0,29.90,SW,217,0.0,0.0,78,0.00,,,0.00,,2013-10-04 23:03:00,
2013-10-04 19:12:00,63.0,56.0,29.90,SW,217,0.0,0.0,78,0.00,,,0.00,,2013-10-04 23:12:00,
2013-10-04 20:23:00,57.0,53.0,29.91,South,172,0.0,0.0,87,0.00,,,0.00,,2013-10-05 00:23:00,
2013-10-04 20:32:00,57.0,53.0,29.91,South,172,0.0,0.0,87,0.00,,,0.00,,2013-10-05 00:32:00,
2013-10-04 21:22:00,55.0,52.0,29.92,SSE,164,0.0,0.0,91,0.00,,,0.00,,2013-10-05 01:22:00,
2013-10-04 21:52:00,55.0,52.0,29.92,SSE,164,0.0,0.0,91,0.00,,,0.00,,2013-10-05 01:52:00,
2013-10-04 22:02:00,55.0,52.0,29.92,SSE,164,0.0,0.0,91,0.00,,,0.00,,2013-10-05 02:02:00,
2013-10-04 22:52:00,55.0,53.0,29.93,SSE,165,0.0,0.0,92,0.00,,,0.00,,2013-10-05 02:52:00,
2013-10-04 23:13:00,55.0,50.0,29.94,SSW,199,0.0,0.0,84,0.00,,,0.00,,2013-10-05 03:13:00,
2013-10-04 23:23:00,55.0,51.0,29.94,SSW,200,0.0,0.0,85,0.00,,,0.00,,2013-10-05 03:23:00,
2013-10-04 23:55:00,55.0,50.0,29.94,SSW,199,0.0,0.0,84,0.00,,,0.00,,2013-10-05 03:55:00,